createdAt,value
2023-02-11T00:00:52.515Z,9.457251
2023-02-11T00:01:52.325Z,9.457254
2023-02-11T00:02:52.266Z,9.457152
2023-02-11T00:03:52.263Z,9.457127
2023-02-11T00:04:52.289Z,9.457200
2023-02-11T00:05:52.511Z,9.457239
2023-02-11T00:06:52.293Z,9.457145
2023-02-11T00:07:52.238Z,9.457231
2023-02-11T00:08:52.212Z,9.457278
2023-02-11T00:09:52.202Z,9.457224
2023-02-11T00:10:52.312Z,9.457202
2023-02-11T00:11:52.211Z,9.457086
2023-02-11T00:12:52.177Z,9.457156
2023-02-11T00:13:52.175Z,9.457399
2023-02-11T00:14:52.167Z,9.457295
2023-02-11T00:15:52.402Z,9.457277
2023-02-11T00:16:52.200Z,9.457170
2023-02-11T00:17:52.143Z,9.457131
2023-02-11T00:18:52.135Z,9.457173
2023-02-11T00:19:52.120Z,9.457213
2023-02-11T00:20:52.116Z,9.457265
2023-02-11T00:21:52.139Z,9.457170
2023-02-11T00:22:52.096Z,9.457163
2023-02-11T00:23:52.092Z,9.457193
2023-02-11T00:24:53.086Z,9.457208
2023-02-11T00:25:52.435Z,9.457070
2023-02-11T00:26:52.092Z,9.457016
2023-02-11T00:27:52.076Z,9.457013
2023-02-11T00:28:52.050Z,9.457392
2023-02-11T00:29:52.049Z,9.457125
2023-02-11T00:30:52.118Z,9.457073
2023-02-11T00:31:52.151Z,9.457145
2023-02-11T00:32:52.017Z,9.457168
2023-02-11T00:33:52.013Z,9.457117
2023-02-11T00:34:52.013Z,9.456998
2023-02-11T00:35:52.286Z,9.456985
2023-02-11T00:36:52.015Z,9.457041
2023-02-11T00:37:52.016Z,9.456921
2023-02-11T00:38:51.990Z,9.456971
2023-02-11T00:39:51.958Z,9.457067
2023-02-11T00:40:51.941Z,9.457264
2023-02-11T00:41:51.935Z,9.457149
2023-02-11T00:42:51.926Z,9.457124
2023-02-11T00:43:51.951Z,9.457346
2023-02-11T00:44:51.920Z,9.457546
2023-02-11T00:45:52.308Z,9.457352
2023-02-11T00:46:51.898Z,9.457317
2023-02-11T00:47:51.895Z,9.456705
2023-02-11T00:48:52.032Z,9.457042
2023-02-11T00:49:51.874Z,9.457265
2023-02-11T00:50:51.857Z,9.457081
2023-02-11T00:51:51.871Z,9.457302
2023-02-11T00:52:51.851Z,9.457343
2023-02-11T00:53:51.834Z,9.458123
2023-02-11T00:54:51.829Z,9.457554
2023-02-11T00:55:52.134Z,9.457486
2023-02-11T00:56:51.837Z,9.457305
2023-02-11T00:57:51.805Z,9.457143
2023-02-11T00:58:51.791Z,9.457295
2023-02-11T00:59:51.776Z,9.457356
2023-02-11T01:00:51.786Z,9.457270
2023-02-11T01:01:51.801Z,9.457628
2023-02-11T01:02:51.768Z,9.457331
2023-02-11T01:03:51.768Z,9.457569
2023-02-11T01:04:51.779Z,9.457378
2023-02-11T01:05:52.099Z,9.457355
2023-02-11T01:06:51.757Z,9.457193
2023-02-11T01:07:51.732Z,9.457120
2023-02-11T01:08:51.727Z,9.457294
2023-02-11T01:09:51.727Z,9.457248
2023-02-11T01:10:51.698Z,9.457348
2023-02-11T01:11:51.704Z,9.457364
2023-02-11T01:12:51.702Z,9.457325
2023-02-11T01:13:51.777Z,9.457378
2023-02-11T01:14:51.689Z,9.457300
2023-02-11T01:15:51.940Z,9.456958
2023-02-11T01:16:51.665Z,9.456972
2023-02-11T01:17:51.656Z,9.457014
2023-02-11T01:18:52.640Z,9.457243
2023-02-11T01:19:51.651Z,9.457167
2023-02-11T01:20:51.625Z,9.457164
2023-02-11T01:21:51.652Z,9.457163
2023-02-11T01:22:51.622Z,9.457181
2023-02-11T01:23:51.601Z,9.457134
2023-02-11T01:24:51.595Z,9.457116
2023-02-11T01:25:51.899Z,9.457111
2023-02-11T01:26:51.596Z,9.457032
2023-02-11T01:27:51.602Z,9.457168
2023-02-11T01:28:51.558Z,9.457198
2023-02-11T01:29:51.574Z,9.457282
2023-02-11T01:30:51.591Z,9.457316
2023-02-11T01:31:51.595Z,9.457161
2023-02-11T01:32:51.543Z,9.456903
2023-02-11T01:33:51.519Z,9.457316
2023-02-11T01:34:51.535Z,9.457397
2023-02-11T01:35:51.769Z,9.457001
2023-02-11T01:36:51.511Z,9.457071
2023-02-11T01:37:51.496Z,9.456722
2023-02-11T01:38:51.482Z,9.456871
2023-02-11T01:39:51.489Z,9.457108
2023-02-11T01:40:51.465Z,9.457318
2023-02-11T01:41:51.470Z,9.457221
2023-02-11T01:42:51.443Z,9.457020
2023-02-11T01:43:51.441Z,9.457040
2023-02-11T01:44:51.437Z,9.457271
2023-02-11T01:45:51.741Z,9.457340
2023-02-11T01:46:51.487Z,9.457333
2023-02-11T01:47:52.409Z,9.457031
2023-02-11T01:48:51.422Z,9.457156
2023-02-11T01:49:51.398Z,9.457276
2023-02-11T01:50:51.389Z,9.457504
2023-02-11T01:51:51.400Z,9.457595
2023-02-11T01:52:51.359Z,9.457570
2023-02-11T01:53:51.575Z,9.457423
2023-02-11T01:54:51.363Z,9.457342
2023-02-11T01:55:51.621Z,9.457334
2023-02-11T01:56:51.355Z,9.457398
2023-02-11T01:57:51.339Z,9.457358
2023-02-11T01:58:51.314Z,9.456870
2023-02-11T01:59:51.308Z,9.456877
2023-02-11T02:00:51.306Z,9.457257
2023-02-11T02:01:51.364Z,9.457284
2023-02-11T02:02:51.273Z,9.457185
2023-02-11T02:03:51.288Z,9.457341
2023-02-11T02:04:51.295Z,9.457316
2023-02-11T02:05:51.596Z,9.457397
2023-02-11T02:06:51.256Z,9.457371
2023-02-11T02:07:51.251Z,9.457310
2023-02-11T02:08:51.235Z,9.457318
2023-02-11T02:09:51.241Z,9.457307
2023-02-11T02:10:51.225Z,9.457302
2023-02-11T02:11:51.241Z,9.457286
2023-02-11T02:12:51.207Z,9.457320
2023-02-11T02:13:51.238Z,9.457312
2023-02-11T02:14:51.201Z,9.457402
2023-02-11T02:15:51.601Z,9.457297
2023-02-11T02:16:51.193Z,9.457330
2023-02-11T02:17:51.164Z,9.457326
2023-02-11T02:18:51.157Z,9.457253
2023-02-11T02:19:51.143Z,9.457237
2023-02-11T02:20:51.131Z,9.457344
2023-02-11T02:21:51.144Z,9.457289
2023-02-11T02:22:51.117Z,9.457273
2023-02-11T02:23:51.117Z,9.457338
2023-02-11T02:24:51.098Z,9.457331
2023-02-11T02:25:51.372Z,9.457360
2023-02-11T02:26:51.113Z,9.457340
2023-02-11T02:27:51.081Z,9.457262
2023-02-11T02:28:51.068Z,9.457242
2023-02-11T02:29:51.061Z,9.457224
2023-02-11T02:30:51.067Z,9.457329
2023-02-11T02:31:51.105Z,9.457393
2023-02-11T02:32:51.044Z,9.457307
2023-02-11T02:33:51.030Z,9.457307
2023-02-11T02:34:51.025Z,9.457314
2023-02-11T02:35:51.329Z,9.457282
2023-02-11T02:36:51.035Z,9.457314
2023-02-11T02:37:50.997Z,9.457301
2023-02-11T02:38:50.992Z,9.457333
2023-02-11T02:39:50.993Z,9.457345
2023-02-11T02:40:50.985Z,9.457248
2023-02-11T02:41:50.997Z,9.457262
2023-02-11T02:42:50.985Z,9.457327
2023-02-11T02:43:50.962Z,9.457343
2023-02-11T02:44:50.951Z,9.457183
2023-02-11T02:45:51.293Z,9.457413
2023-02-11T02:46:50.982Z,9.457413
2023-02-11T02:47:50.952Z,9.457171
2023-02-11T02:48:50.915Z,9.457082
2023-02-11T02:49:50.904Z,9.457035
2023-02-11T02:50:50.919Z,9.457063
2023-02-11T02:51:50.893Z,9.457189
2023-02-11T02:52:50.897Z,9.457226
2023-02-11T02:53:50.875Z,9.457228
2023-02-11T02:54:50.863Z,9.457310
2023-02-11T02:55:51.182Z,9.457316
2023-02-11T02:56:50.847Z,9.457289
2023-02-11T02:57:50.880Z,9.457282
2023-02-11T02:58:50.835Z,9.457099
2023-02-11T02:59:50.830Z,9.457032
2023-02-11T03:00:50.861Z,9.457127
2023-02-11T03:01:50.807Z,9.457031
2023-02-11T03:02:50.825Z,9.456981
2023-02-11T03:03:50.858Z,9.457109
2023-02-11T03:04:50.792Z,9.457023
2023-02-11T03:05:51.184Z,9.457177
2023-02-11T03:06:50.775Z,9.457310
2023-02-11T03:07:50.787Z,9.456959
2023-02-11T03:08:50.749Z,9.457121
2023-02-11T03:09:50.742Z,9.457028
2023-02-11T03:10:50.735Z,9.457090
2023-02-11T03:11:50.727Z,9.457062
2023-02-11T03:12:50.753Z,9.457287
2023-02-11T03:13:50.724Z,9.457230
2023-02-11T03:14:50.710Z,9.457209
2023-02-11T03:15:51.056Z,9.457134
2023-02-11T03:16:50.696Z,9.457105
2023-02-11T03:17:50.714Z,9.457185
2023-02-11T03:18:50.744Z,9.457119
2023-02-11T03:19:50.665Z,9.457144
2023-02-11T03:20:50.666Z,9.457165
2023-02-11T03:21:50.646Z,9.457079
2023-02-11T03:22:50.660Z,9.457173
2023-02-11T03:23:50.634Z,9.457097
2023-02-11T03:24:50.617Z,9.457090
2023-02-11T03:25:50.917Z,9.457230
2023-02-11T03:26:50.616Z,9.457187
2023-02-11T03:27:50.631Z,9.457288
2023-02-11T03:28:50.595Z,9.457195
2023-02-11T03:29:50.590Z,9.457250
2023-02-11T03:30:50.646Z,9.457172
2023-02-11T03:31:50.601Z,9.457203
2023-02-11T03:32:50.590Z,9.457145
2023-02-11T03:33:50.552Z,9.457227
2023-02-11T03:34:50.541Z,9.457221
2023-02-11T03:35:50.797Z,9.457088
2023-02-11T03:36:50.534Z,9.457260
2023-02-11T03:37:50.556Z,9.457232
2023-02-11T03:38:50.521Z,9.457155
2023-02-11T03:39:50.526Z,9.457270
2023-02-11T03:40:50.503Z,9.457243
2023-02-11T03:41:50.493Z,9.457195
2023-02-11T03:42:50.508Z,9.457155
2023-02-11T03:43:50.478Z,9.457144
2023-02-11T03:44:50.462Z,9.457302
2023-02-11T03:45:50.793Z,9.457264
2023-02-11T03:46:50.462Z,9.457320
2023-02-11T03:47:50.462Z,9.457186
2023-02-11T03:48:50.442Z,9.457082
2023-02-11T03:49:50.436Z,9.457181
2023-02-11T03:50:50.428Z,9.456858
2023-02-11T03:51:50.412Z,9.456769
2023-02-11T03:52:50.430Z,9.456886
2023-02-11T03:53:50.402Z,9.456950
2023-02-11T03:54:50.390Z,9.456969
2023-02-11T03:55:50.703Z,9.457224
2023-02-11T03:56:50.382Z,9.457159
2023-02-11T03:57:50.413Z,9.457227
2023-02-11T03:58:50.359Z,9.457074
2023-02-11T03:59:50.361Z,9.457112
2023-02-11T04:00:50.385Z,9.457191
2023-02-11T04:01:50.344Z,9.457236
2023-02-11T04:02:50.395Z,9.457166
2023-02-11T04:03:50.326Z,9.457110
2023-02-11T04:04:50.322Z,9.457086
2023-02-11T04:05:50.606Z,9.457110
2023-02-11T04:06:50.300Z,9.457213
2023-02-11T04:07:50.361Z,9.457370
2023-02-11T04:08:50.336Z,9.457372
2023-02-11T04:09:50.273Z,9.457122
2023-02-11T04:10:50.258Z,9.456919
2023-02-11T04:11:51.262Z,9.456877
2023-02-11T04:12:50.260Z,9.456767
2023-02-11T04:13:50.250Z,9.456943
2023-02-11T04:14:50.231Z,9.457185
2023-02-11T04:15:50.579Z,9.457056
2023-02-11T04:16:50.215Z,9.457045
2023-02-11T04:17:50.236Z,9.457066
2023-02-11T04:18:50.200Z,9.457175
2023-02-11T04:19:50.197Z,9.456825
2023-02-11T04:20:50.203Z,9.456879
2023-02-11T04:21:50.174Z,9.456930
2023-02-11T04:22:50.182Z,9.456979
2023-02-11T04:23:50.162Z,9.456862
2023-02-11T04:24:50.154Z,9.456903
2023-02-11T04:25:50.473Z,9.457038
2023-02-11T04:26:50.144Z,9.457007
2023-02-11T04:27:50.156Z,9.457135
2023-02-11T04:28:50.120Z,9.456906
2023-02-11T04:29:50.115Z,9.456848
2023-02-11T04:30:50.114Z,9.456878
2023-02-11T04:31:50.153Z,9.456983
2023-02-11T04:32:50.103Z,9.457031
2023-02-11T04:33:51.085Z,9.457393
2023-02-11T04:34:50.069Z,9.457548
2023-02-11T04:35:50.388Z,9.457513
2023-02-11T04:36:50.047Z,9.457534
2023-02-11T04:37:50.060Z,9.457104
2023-02-11T04:38:50.034Z,9.457114
2023-02-11T04:39:50.047Z,9.457180
2023-02-11T04:40:50.026Z,9.457142
2023-02-11T04:41:50.013Z,9.457045
2023-02-11T04:42:50.042Z,9.457029
2023-02-11T04:43:49.995Z,9.456975
2023-02-11T04:44:49.992Z,9.456979
2023-02-11T04:45:51.351Z,9.457223
2023-02-11T04:46:49.973Z,9.457310
2023-02-11T04:47:49.983Z,9.457127
2023-02-11T04:48:49.964Z,9.457292
2023-02-11T04:49:49.949Z,9.457305
2023-02-11T04:50:49.944Z,9.456996
2023-02-11T04:51:49.929Z,9.456933
2023-02-11T04:52:49.936Z,9.457076
2023-02-11T04:53:49.913Z,9.457080
2023-02-11T04:54:49.901Z,9.456837
2023-02-11T04:55:50.234Z,9.457233
2023-02-11T04:56:49.888Z,9.457321
2023-02-11T04:57:49.943Z,9.456841
2023-02-11T04:58:49.878Z,9.456884
2023-02-11T04:59:49.857Z,9.457086
2023-02-11T05:00:49.975Z,9.457041
2023-02-11T05:01:49.855Z,9.457150
2023-02-11T05:02:49.905Z,9.456935
2023-02-11T05:03:49.854Z,9.456970
2023-02-11T05:04:49.830Z,9.457017
2023-02-11T05:05:50.186Z,9.457079
2023-02-11T05:06:49.814Z,9.456957
2023-02-11T05:07:49.820Z,9.457037
2023-02-11T05:08:49.797Z,9.457028
2023-02-11T05:09:49.781Z,9.457206
2023-02-11T05:10:49.797Z,9.456988
2023-02-11T05:11:49.781Z,9.457088
2023-02-11T05:12:49.801Z,9.456718
2023-02-11T05:13:49.778Z,9.456852
2023-02-11T05:14:49.740Z,9.456902
2023-02-11T05:15:50.151Z,9.456970
2023-02-11T05:16:49.767Z,9.457134
2023-02-11T05:17:49.715Z,9.456949
2023-02-11T05:18:52.147Z,9.457077
2023-02-11T05:19:50.704Z,9.456876
2023-02-11T05:20:49.684Z,9.456973
2023-02-11T05:22:01.707Z,9.456959
2023-02-11T05:22:51.687Z,9.457028
2023-02-11T05:23:49.652Z,9.457174
2023-02-11T05:24:49.652Z,9.457076
2023-02-11T05:25:49.965Z,9.456945
2023-02-11T05:26:49.637Z,9.456871
2023-02-11T05:27:49.667Z,9.456987
2023-02-11T05:28:49.693Z,9.457045
2023-02-11T05:29:49.603Z,9.457057
2023-02-11T05:30:49.704Z,9.457119
2023-02-11T05:31:49.590Z,9.457174
2023-02-11T05:32:49.594Z,9.457381
2023-02-11T05:33:49.580Z,9.457179
2023-02-11T05:34:49.569Z,9.457122
2023-02-11T05:35:49.897Z,9.457229
2023-02-11T05:36:49.545Z,9.457445
2023-02-11T05:37:49.553Z,9.457314
2023-02-11T05:38:49.539Z,9.457317
2023-02-11T05:39:49.523Z,9.457210
2023-02-11T05:40:49.509Z,9.456995
2023-02-11T05:42:15.913Z,9.456923
2023-02-11T05:42:49.522Z,9.456988
2023-02-11T05:43:49.493Z,9.457203
2023-02-11T05:44:50.703Z,9.457386
2023-02-11T05:45:50.921Z,9.457123
2023-02-11T05:46:49.510Z,9.457199
2023-02-11T05:47:49.486Z,9.457229
2023-02-11T05:48:49.468Z,9.457294
2023-02-11T05:49:49.455Z,9.457231
2023-02-11T05:50:49.431Z,9.457035
2023-02-11T05:51:49.424Z,9.457091
2023-02-11T05:52:49.420Z,9.457209
2023-02-11T05:53:49.427Z,9.457180
2023-02-11T05:54:49.402Z,9.457226
2023-02-11T05:55:49.772Z,9.457223
2023-02-11T05:56:49.390Z,9.457425
2023-02-11T05:57:49.364Z,9.457458
2023-02-11T05:58:49.414Z,9.457406
2023-02-11T05:59:49.356Z,9.457306
2023-02-11T06:00:49.338Z,9.457260
2023-02-11T06:01:49.334Z,9.457202
2023-02-11T06:02:49.368Z,9.457069
2023-02-11T06:03:49.383Z,9.457139
2023-02-11T06:04:49.314Z,9.457138
2023-02-11T06:05:49.647Z,9.457163
2023-02-11T06:06:49.289Z,9.457311
2023-02-11T06:07:49.279Z,9.457352
2023-02-11T06:08:49.313Z,9.457245
2023-02-11T06:09:49.264Z,9.457277
2023-02-11T06:10:49.279Z,9.457302
2023-02-11T06:11:49.245Z,9.457322
2023-02-11T06:12:49.243Z,9.457239
2023-02-11T06:13:49.244Z,9.457056
2023-02-11T06:14:49.217Z,9.457035
2023-02-11T06:15:49.585Z,9.457234
2023-02-11T06:16:49.200Z,9.457205
2023-02-11T06:17:49.197Z,9.457240
2023-02-11T06:18:49.222Z,9.457230
2023-02-11T06:19:49.173Z,9.457135
2023-02-11T06:20:49.167Z,9.457260
2023-02-11T06:21:49.160Z,9.457180
2023-02-11T06:22:49.141Z,9.457161
2023-02-11T06:23:49.184Z,9.457170
2023-02-11T06:25:00.812Z,9.457265
2023-02-11T06:25:51.440Z,9.457293
2023-02-11T06:26:49.109Z,9.457284
2023-02-11T06:27:49.101Z,9.457378
2023-02-11T06:28:49.135Z,9.457291
2023-02-11T06:29:49.099Z,9.457283
2023-02-11T06:30:49.258Z,9.457420
2023-02-11T06:31:49.201Z,9.457184
2023-02-11T06:32:49.175Z,9.457459
2023-02-11T06:33:49.073Z,9.457394
2023-02-11T06:34:49.044Z,9.457233
2023-02-11T06:35:49.399Z,9.457310
2023-02-11T06:36:49.052Z,9.457190
2023-02-11T06:37:49.022Z,9.457205
2023-02-11T06:38:49.042Z,9.457216
2023-02-11T06:39:49.000Z,9.457202
2023-02-11T06:40:48.983Z,9.457315
2023-02-11T06:41:48.987Z,9.457470
2023-02-11T06:42:48.968Z,9.457123
2023-02-11T06:43:48.982Z,9.457227
2023-02-11T06:44:48.955Z,9.457217
2023-02-11T06:45:49.202Z,9.457191
2023-02-11T06:46:48.963Z,9.457255
2023-02-11T06:47:48.941Z,9.457202
2023-02-11T06:48:48.976Z,9.457289
2023-02-11T06:49:48.912Z,9.457408
2023-02-11T06:50:48.900Z,9.457392
2023-02-11T06:51:48.896Z,9.457350
2023-02-11T06:52:48.901Z,9.457305
2023-02-11T06:53:48.909Z,9.457265
2023-02-11T06:54:48.873Z,9.457355
2023-02-11T06:55:49.090Z,9.457329
2023-02-11T06:56:48.863Z,9.457103
2023-02-11T06:57:48.848Z,9.457301
2023-02-11T06:58:48.854Z,9.457126
2023-02-11T06:59:48.899Z,9.457147
2023-02-11T07:00:48.820Z,9.457316
2023-02-11T07:01:48.880Z,9.457385
2023-02-11T07:02:48.814Z,9.457181
2023-02-11T07:03:48.793Z,9.457223
2023-02-11T07:04:49.775Z,9.457236
2023-02-11T07:05:49.065Z,9.457283
2023-02-11T07:06:48.764Z,9.457244
2023-02-11T07:07:48.762Z,9.457327
2023-02-11T07:08:48.766Z,9.457141
2023-02-11T07:09:48.741Z,9.457255
2023-02-11T07:10:48.727Z,9.457182
2023-02-11T07:11:48.715Z,9.457243
2023-02-11T07:12:48.715Z,9.457176
2023-02-11T07:13:48.783Z,9.457047
2023-02-11T07:14:48.688Z,9.457197
2023-02-11T07:15:49.062Z,9.457256
2023-02-11T07:16:48.674Z,9.457093
2023-02-11T07:17:48.660Z,9.457205
2023-02-11T07:18:48.671Z,9.457150
2023-02-11T07:19:48.644Z,9.456959
2023-02-11T07:20:48.654Z,9.456343
2023-02-11T07:21:48.658Z,9.456911
2023-02-11T07:22:48.671Z,9.457188
2023-02-11T07:23:48.647Z,9.457156
2023-02-11T07:24:48.601Z,9.457128
2023-02-11T07:25:48.849Z,9.457039
2023-02-11T07:26:48.589Z,9.457053
2023-02-11T07:27:48.597Z,9.457078
2023-02-11T07:28:48.597Z,9.457043
2023-02-11T07:29:48.559Z,9.457212
2023-02-11T07:30:48.567Z,9.457193
2023-02-11T07:31:48.802Z,9.457005
2023-02-11T07:32:48.533Z,9.457289
2023-02-11T07:33:48.530Z,9.457187
2023-02-11T07:34:48.593Z,9.457038
2023-02-11T07:35:48.900Z,9.457047
2023-02-11T07:36:48.483Z,9.457008
2023-02-11T07:37:48.481Z,9.457213
2023-02-11T07:38:48.488Z,9.457412
2023-02-11T07:39:48.471Z,9.457468
2023-02-11T07:40:48.445Z,9.457160
2023-02-11T07:41:48.437Z,9.457213
2023-02-11T07:42:48.429Z,9.457046
2023-02-11T07:43:48.449Z,9.457224
2023-02-11T07:44:50.440Z,9.457220
2023-02-11T07:45:49.773Z,9.457131
2023-02-11T07:46:48.422Z,9.457191
2023-02-11T07:47:48.380Z,9.457304
2023-02-11T07:48:48.403Z,9.457172
2023-02-11T07:49:48.379Z,9.457204
2023-02-11T07:50:48.351Z,9.457251
2023-02-11T07:51:48.350Z,9.457210
2023-02-11T07:52:48.348Z,9.457438
2023-02-11T07:53:48.336Z,9.457299
2023-02-11T07:54:48.445Z,9.457179
2023-02-11T07:55:48.488Z,9.457248
2023-02-11T07:56:48.293Z,9.457267
2023-02-11T07:57:48.292Z,9.457054
2023-02-11T07:58:48.279Z,9.457274
2023-02-11T07:59:48.357Z,9.457477
2023-02-11T08:00:48.315Z,9.457868
2023-02-11T08:01:48.281Z,9.457956
2023-02-11T08:02:48.241Z,9.457707
2023-02-11T08:03:48.246Z,9.457251
2023-02-11T08:04:48.219Z,9.457458
2023-02-11T08:05:48.337Z,9.457615
2023-02-11T08:06:48.196Z,9.457239
2023-02-11T08:07:48.185Z,9.457081
2023-02-11T08:08:48.197Z,9.456985
2023-02-11T08:09:49.182Z,9.457327
2023-02-11T08:10:48.360Z,9.457259
2023-02-11T08:11:48.150Z,9.457374
2023-02-11T08:12:48.131Z,9.457337
2023-02-11T08:13:48.136Z,9.457254
2023-02-11T08:14:48.159Z,9.457296
2023-02-11T08:15:48.365Z,9.457397
2023-02-11T08:16:48.174Z,9.457658
2023-02-11T08:17:48.082Z,9.457727
2023-02-11T08:18:48.090Z,9.457663
2023-02-11T08:19:48.058Z,9.457700
2023-02-11T08:20:48.171Z,9.457678
2023-02-11T08:21:48.049Z,9.457437
2023-02-11T08:22:48.032Z,9.457366
2023-02-11T08:23:48.033Z,9.457492
2023-02-11T08:24:50.093Z,9.457362
2023-02-11T08:25:48.022Z,9.457211
2023-02-11T08:26:47.985Z,9.457470
2023-02-11T08:27:48.010Z,9.457508
2023-02-11T08:28:47.981Z,9.457537
2023-02-11T08:29:47.965Z,9.457778
2023-02-11T08:30:48.027Z,9.457614
2023-02-11T08:31:47.956Z,9.457260
2023-02-11T08:32:47.929Z,9.457335
2023-02-11T08:33:47.929Z,9.457443
2023-02-11T08:34:47.911Z,9.457437
2023-02-11T08:35:47.893Z,9.457308
2023-02-11T08:36:47.881Z,9.457295
2023-02-11T08:37:48.880Z,9.457343
2023-02-11T08:38:47.924Z,9.457286
2023-02-11T08:39:47.856Z,9.457387
2023-02-11T08:40:47.844Z,9.457324
2023-02-11T08:41:47.840Z,9.457259
2023-02-11T08:42:47.830Z,9.457251
2023-02-11T08:43:47.839Z,9.457297
2023-02-11T08:44:47.807Z,9.457257
2023-02-11T08:45:47.892Z,9.457245
2023-02-11T08:46:47.807Z,9.457316
2023-02-11T08:47:47.781Z,9.457292
2023-02-11T08:48:47.850Z,9.457342
2023-02-11T08:49:47.769Z,9.457322
2023-02-11T08:50:47.762Z,9.457310
2023-02-11T08:51:47.752Z,9.457267
2023-02-11T08:52:47.732Z,9.457329
2023-02-11T08:53:47.757Z,9.457324
2023-02-11T08:54:47.720Z,9.457319
2023-02-11T08:55:47.703Z,9.457371
2023-02-11T08:56:47.695Z,9.457348
2023-02-11T08:57:47.674Z,9.457269
2023-02-11T08:58:47.781Z,9.457275
2023-02-11T08:59:47.676Z,9.457350
2023-02-11T09:00:47.684Z,9.457308
2023-02-11T09:01:47.722Z,9.457237
2023-02-11T09:02:47.644Z,9.457322
2023-02-11T09:03:47.653Z,9.457256
2023-02-11T09:04:47.620Z,9.457216
2023-02-11T09:05:47.619Z,9.457243
2023-02-11T09:06:47.628Z,9.457270
2023-02-11T09:07:47.602Z,9.457275
2023-02-11T09:08:47.626Z,9.457385
2023-02-11T09:09:47.578Z,9.457175
2023-02-11T09:10:47.574Z,9.457117
2023-02-11T09:11:47.551Z,9.457071
2023-02-11T09:12:47.549Z,9.457213
2023-02-11T09:13:47.565Z,9.457298
2023-02-11T09:14:47.529Z,9.457253
2023-02-11T09:15:47.545Z,9.457263
2023-02-11T09:16:47.542Z,9.457323
2023-02-11T09:17:47.500Z,9.457401
2023-02-11T09:18:47.600Z,9.457314
2023-02-11T09:19:47.484Z,9.457239
2023-02-11T09:20:47.483Z,9.457235
2023-02-11T09:21:47.469Z,9.457186
2023-02-11T09:22:47.463Z,9.457335
2023-02-11T09:23:47.479Z,9.457226
2023-02-11T09:24:47.444Z,9.457326
2023-02-11T09:25:47.430Z,9.457217
2023-02-11T09:26:47.421Z,9.457175
2023-02-11T09:27:47.400Z,9.457197
2023-02-11T09:28:47.424Z,9.457214
2023-02-11T09:29:48.449Z,9.457205
2023-02-11T09:30:47.483Z,9.457232
2023-02-11T09:31:47.547Z,9.457145
2023-02-11T09:32:47.344Z,9.457150
2023-02-11T09:33:47.337Z,9.457234
2023-02-11T09:34:47.338Z,9.457202
2023-02-11T09:35:47.316Z,9.457284
2023-02-11T09:36:47.301Z,9.457269
2023-02-11T09:37:47.290Z,9.457306
2023-02-11T09:38:47.300Z,9.457324
2023-02-11T09:39:47.292Z,9.457211
2023-02-11T09:40:48.424Z,9.457239
2023-02-11T09:41:47.255Z,9.457232
2023-02-11T09:42:47.234Z,9.457240
2023-02-11T09:43:47.234Z,9.457404
2023-02-11T09:44:47.237Z,9.457301
2023-02-11T09:45:47.227Z,9.457285
2023-02-11T09:46:47.198Z,9.457232
2023-02-11T09:47:47.176Z,9.457263
2023-02-11T09:48:47.176Z,9.457202
2023-02-11T09:49:47.184Z,9.457170
2023-02-11T09:50:47.178Z,9.457188
2023-02-11T09:51:47.137Z,9.457192
2023-02-11T09:52:47.120Z,9.457170
2023-02-11T09:53:47.117Z,9.457155
2023-02-11T09:54:47.102Z,9.457277
2023-02-11T09:55:47.115Z,9.457270
2023-02-11T09:56:47.076Z,9.457275
2023-02-11T09:57:47.069Z,9.457245
2023-02-11T09:58:47.087Z,9.457335
2023-02-11T09:59:47.043Z,9.457202
2023-02-11T10:00:47.034Z,9.457233
2023-02-11T10:01:47.111Z,9.457255
2023-02-11T10:02:47.008Z,9.457207
2023-02-11T10:03:47.010Z,9.457314
2023-02-11T10:04:47.001Z,9.457439
2023-02-11T10:05:46.973Z,9.457360
2023-02-11T10:06:46.967Z,9.457300
2023-02-11T10:07:46.956Z,9.457397
2023-02-11T10:08:46.945Z,9.457322
2023-02-11T10:09:46.959Z,9.457277
2023-02-11T10:10:46.953Z,9.457284
2023-02-11T10:11:46.918Z,9.457387
2023-02-11T10:12:46.912Z,9.457312
2023-02-11T10:13:46.884Z,9.457288
2023-02-11T10:14:46.912Z,9.457327
2023-02-11T10:15:46.913Z,9.457291
2023-02-11T10:16:46.859Z,9.457322
2023-02-11T10:17:46.850Z,9.457220
2023-02-11T10:18:46.834Z,9.457223
2023-02-11T10:19:46.911Z,9.457209
2023-02-11T10:20:46.816Z,9.457222
2023-02-11T10:21:46.805Z,9.457209
2023-02-11T10:22:46.796Z,9.457222
2023-02-11T10:23:46.787Z,9.457361
2023-02-11T10:24:46.809Z,9.457400
2023-02-11T10:25:46.759Z,9.457357
2023-02-11T10:26:46.757Z,9.457266
2023-02-11T10:27:46.738Z,9.457341
2023-02-11T10:28:46.730Z,9.457388
2023-02-11T10:29:46.741Z,9.457311
2023-02-11T10:30:46.767Z,9.457209
2023-02-11T10:31:46.719Z,9.457291
2023-02-11T10:32:46.689Z,9.457288
2023-02-11T10:33:46.667Z,9.457314
2023-02-11T10:34:46.672Z,9.457255
2023-02-11T10:35:46.656Z,9.457354
2023-02-11T10:36:46.661Z,9.457360
2023-02-11T10:37:46.624Z,9.457442
2023-02-11T10:38:46.614Z,9.457479
2023-02-11T10:39:46.625Z,9.457487
2023-02-11T10:40:46.614Z,9.457618
2023-02-11T10:41:46.595Z,9.457731
2023-02-11T10:42:46.581Z,9.457934
2023-02-11T10:43:46.561Z,9.457618
2023-02-11T10:44:46.632Z,9.457306
2023-02-11T10:45:46.551Z,9.457398
2023-02-11T10:46:46.602Z,9.457551
2023-02-11T10:47:46.573Z,9.457450
2023-02-11T10:48:46.505Z,9.457535
2023-02-11T10:49:46.539Z,9.457424
2023-02-11T10:50:46.485Z,9.457574
2023-02-11T10:51:46.471Z,9.457530
2023-02-11T10:52:46.460Z,9.457416
2023-02-11T10:53:46.458Z,9.457446
2023-02-11T10:54:46.449Z,9.457253
2023-02-11T10:55:46.422Z,9.457564
2023-02-11T10:56:46.476Z,9.457462
2023-02-11T10:57:46.418Z,9.457438
2023-02-11T10:58:46.403Z,9.457553
2023-02-11T10:59:46.382Z,9.457531
2023-02-11T11:00:46.372Z,9.457382
2023-02-11T11:01:46.452Z,9.457416
2023-02-11T11:02:46.352Z,9.457535
2023-02-11T11:03:46.341Z,9.457209
2023-02-11T11:04:46.385Z,9.457353
2023-02-11T11:05:46.313Z,9.457358
2023-02-11T11:06:46.311Z,9.457372
2023-02-11T11:07:46.300Z,9.457230
2023-02-11T11:08:46.278Z,9.457366
2023-02-11T11:09:46.345Z,9.457360
2023-02-11T11:10:46.260Z,9.457170
2023-02-11T11:11:46.246Z,9.457252
2023-02-11T11:12:46.272Z,9.457295
2023-02-11T11:13:46.228Z,9.457067
2023-02-11T11:14:46.215Z,9.457162
2023-02-11T11:15:46.219Z,9.457098
2023-02-11T11:16:46.201Z,9.457186
2023-02-11T11:17:46.215Z,9.457162
2023-02-11T11:18:46.174Z,9.457193
2023-02-11T11:19:46.192Z,9.457248
2023-02-11T11:20:46.142Z,9.457179
2023-02-11T11:21:46.141Z,9.457294
2023-02-11T11:22:46.128Z,9.457294
2023-02-11T11:23:46.120Z,9.457253
2023-02-11T11:24:46.139Z,9.457386
2023-02-11T11:25:46.122Z,9.457334
2023-02-11T11:26:46.091Z,9.457261
2023-02-11T11:27:46.070Z,9.457357
2023-02-11T11:28:46.064Z,9.457367
2023-02-11T11:29:46.072Z,9.457370
2023-02-11T11:30:46.088Z,9.457172
2023-02-11T11:31:46.046Z,9.457135
2023-02-11T11:32:46.011Z,9.457206
2023-02-11T11:33:47.026Z,9.457421
2023-02-11T11:34:46.024Z,9.457381
2023-02-11T11:35:45.988Z,9.457238
2023-02-11T11:36:45.971Z,9.457127
2023-02-11T11:37:45.960Z,9.457254
2023-02-11T11:38:45.948Z,9.457316
2023-02-11T11:39:45.961Z,9.457331
2023-02-11T11:40:45.928Z,9.457221
2023-02-11T11:53:11.362Z,9.457123
2023-02-11T11:54:11.346Z,9.457232
2023-02-11T11:55:11.361Z,9.457006
2023-02-11T11:56:11.352Z,9.457006